Time;durP1;ratioP1;P1;durP2;ratioP2;P2;SDS_P1;SDS_P2;PMS_P1;PMS_P2;Temp;Humidity;BMP_temperature;BMP_pressure;BME280_temperature;BME280_humidity;BME280_pressure;Samples;Min_cycle;Max_cycle;Signal;HPM_P1;HPM_P2
2022/01/24 00:01:19;;;;;;;;;;;7.50;57.10;;;;;;4974838;28;19917;-66
2022/01/24 00:03:45;;;;;;;;;;;7.30;58.20;;;;;;4975200;28;20319;-65
2022/01/24 00:06:14;;;;;;;;;;;7.40;57.30;;;;;;4973645;28;20249;-64
2022/01/24 00:08:39;;;;;;;;;;;7.60;56.70;;;;;;4975195;28;19914;-62
2022/01/24 00:11:09;;;;;;;;;;;7.50;56.80;;;;;;4975358;28;19917;-66
2022/01/24 00:16:21;;;;;;;;;;;7.20;59.70;;;;;;4975011;28;19918;-63
2022/01/24 00:26:50;;;;;;;;;;;6.80;61.50;;;;;;4974877;28;19917;-67
2022/01/24 00:29:18;;;;;;;;;;;6.90;61.50;;;;;;4974885;28;19914;-63
2022/01/24 00:31:44;;;;;;;;;;;6.90;62.10;;;;;;4974786;28;20370;-63
2022/01/24 00:34:10;;;;;;;;;;;6.80;62.20;;;;;;4974699;28;19910;-62
2022/01/24 00:36:37;;;;;;;;;;;6.80;62.80;;;;;;4975015;28;20590;-64
2022/01/24 00:39:03;;;;;;;;;;;6.70;62.60;;;;;;4974795;28;19957;-63
2022/01/24 00:41:31;;;;;;;;;;;6.90;60.70;;;;;;4974585;28;19925;-63
2022/01/24 00:46:48;;;;;;;;;;;7.30;57.70;;;;;;4974818;28;19953;-63
2022/01/24 00:54:44;;;;;;;;;;;7.50;57.00;;;;;;4974945;28;19921;-64
2022/01/24 00:57:10;;;;;;;;;;;7.40;58.60;;;;;;4974746;28;19911;-63
2022/01/24 00:59:36;;;;;;;;;;;7.50;58.50;;;;;;4974632;28;19933;-64
2022/01/24 01:02:02;;;;;;;;;;;7.40;58.60;;;;;;4974418;28;20354;-64
2022/01/24 01:04:37;;;;;;;;;;;7.30;59.10;;;;;;4974399;28;19929;-64
2022/01/24 01:07:07;;;;;;;;;;;7.40;59.20;;;;;;4974717;28;20405;-64
2022/01/24 01:18:10;;;;;;;;;;;7.10;60.90;;;;;;4956105;28;20009;-66
2022/01/24 01:23:13;;;;;;;;;;;7.00;61.40;;;;;;4974767;28;19925;-69
2022/01/24 01:25:41;;;;;;;;;;;7.10;60.50;;;;;;4974563;28;20290;-67
2022/01/24 01:28:07;;;;;;;;;;;7.10;59.50;;;;;;4974476;28;19910;-66
2022/01/24 01:30:39;;;;;;;;;;;7.10;61.80;;;;;;4974508;28;19917;-65
2022/01/24 01:33:17;;;;;;;;;;;7.10;61.50;;;;;;4975089;28;19916;-68
2022/01/24 01:38:45;;;;;;;;;;;7.30;59.70;;;;;;4977982;28;20013;-63
2022/01/24 01:52:26;;;;;;;;;;;7.50;59.10;;;;;;4980886;28;19918;-70
2022/01/24 01:55:07;;;;;;;;;;;7.20;61.20;;;;;;4987396;28;19957;-68
2022/01/24 01:57:32;;;;;;;;;;;7.20;61.60;;;;;;4987695;28;20414;-70
2022/01/24 01:59:58;;;;;;;;;;;7.20;60.90;;;;;;4987764;28;19910;-69
2022/01/24 02:02:24;;;;;;;;;;;7.10;61.60;;;;;;4983110;28;19964;-72
2022/01/24 02:04:49;;;;;;;;;;;7.10;61.00;;;;;;4991904;28;20011;-68
2022/01/24 02:07:15;;;;;;;;;;;7.10;60.50;;;;;;4985515;28;19926;-66
2022/01/24 02:09:45;;;;;;;;;;;7.10;61.80;;;;;;4979192;28;20215;-67
2022/01/24 02:12:11;;;;;;;;;;;7.20;61.30;;;;;;4977596;28;19917;-67
2022/01/24 02:14:42;;;;;;;;;;;7.10;61.60;;;;;;4977042;28;19914;-68
2022/01/24 02:17:13;;;;;;;;;;;7.00;62.00;;;;;;4977777;28;20366;-67
2022/01/24 02:25:21;;;;;;;;;;;7.20;58.90;;;;;;4976964;28;20278;-67
2022/01/24 02:27:45;;;;;;;;;;;7.30;59.20;;;;;;4976732;28;19953;-66
2022/01/24 02:30:27;;;;;;;;;;;7.20;59.20;;;;;;4977132;28;19914;-64
2022/01/24 02:32:55;;;;;;;;;;;7.20;58.60;;;;;;4976598;28;19910;-62
2022/01/24 02:35:20;;;;;;;;;;;7.40;57.60;;;;;;4976928;28;19934;-66
2022/01/24 02:37:46;;;;;;;;;;;7.60;57.10;;;;;;4976834;28;19965;-62
2022/01/24 02:40:18;;;;;;;;;;;7.70;56.90;;;;;;4976495;28;19910;-64
2022/01/24 02:48:27;;;;;;;;;;;7.70;56.40;;;;;;4976692;28;19960;-67
2022/01/24 02:53:32;;;;;;;;;;;7.60;56.80;;;;;;4976385;28;19910;-63
2022/01/24 02:55:58;;;;;;;;;;;7.60;56.60;;;;;;4976477;28;20337;-65
2022/01/24 02:58:23;;;;;;;;;;;7.70;56.60;;;;;;4976203;28;19957;-63
2022/01/24 03:00:50;;;;;;;;;;;7.70;56.40;;;;;;4976254;28;20358;-66
2022/01/24 03:03:16;;;;;;;;;;;7.70;56.60;;;;;;4975997;28;19918;-63
2022/01/24 03:05:41;;;;;;;;;;;7.60;57.20;;;;;;4976124;28;19937;-63
2022/01/24 03:08:07;;;;;;;;;;;7.60;57.60;;;;;;4976251;28;19914;-65
2022/01/24 03:10:40;;;;;;;;;;;7.60;57.40;;;;;;4975898;28;19914;-66
2022/01/24 03:13:48;;;;;;;;;;;7.50;58.00;;;;;;4976054;28;19917;-68
2022/01/24 03:15:56;;;;;;;;;;;7.50;57.80;;;;;;4972920;28;19964;-68
2022/01/24 03:18:22;;;;;;;;;;;7.50;57.40;;;;;;4975988;28;19993;-68
2022/01/24 03:20:47;;;;;;;;;;;7.60;57.10;;;;;;4975850;28;19954;-69
2022/01/24 03:23:17;;;;;;;;;;;7.50;57.30;;;;;;4975796;28;20012;-68
2022/01/24 03:25:42;;;;;;;;;;;7.60;57.30;;;;;;5006845;28;19957;-67
2022/01/24 03:28:08;;;;;;;;;;;7.60;56.90;;;;;;4975652;28;19914;-67
2022/01/24 03:30:34;;;;;;;;;;;7.60;56.90;;;;;;4975657;28;20306;-69
2022/01/24 03:33:00;;;;;;;;;;;7.50;57.20;;;;;;4975717;28;19917;-68
2022/01/24 03:35:26;;;;;;;;;;;7.60;56.50;;;;;;4974662;28;19911;-67
2022/01/24 03:37:52;;;;;;;;;;;7.60;56.40;;;;;;4975787;28;19910;-66
2022/01/24 03:40:17;;;;;;;;;;;7.70;56.20;;;;;;4975378;28;20385;-67
2022/01/24 03:42:43;;;;;;;;;;;7.80;56.00;;;;;;4975303;28;19922;-65
2022/01/24 03:45:10;;;;;;;;;;;7.70;56.10;;;;;;4975303;28;20065;-65
2022/01/24 03:50:06;;;;;;;;;;;7.70;56.30;;;;;;4975631;28;19914;-64
2022/01/24 03:52:32;;;;;;;;;;;7.70;56.40;;;;;;4975149;28;19914;-66
2022/01/24 03:54:58;;;;;;;;;;;7.50;56.90;;;;;;4975261;28;19910;-68
2022/01/24 03:57:24;;;;;;;;;;;7.60;56.50;;;;;;4974655;28;19910;-67
2022/01/24 03:59:50;;;;;;;;;;;7.60;56.60;;;;;;4975603;28;19968;-64
2022/01/24 04:02:16;;;;;;;;;;;7.70;56.20;;;;;;4974916;28;19914;-68
2022/01/24 04:04:42;;;;;;;;;;;7.80;56.10;;;;;;4974991;28;20032;-67
2022/01/24 04:07:08;;;;;;;;;;;7.70;56.20;;;;;;4974928;28;19968;-69
2022/01/24 04:09:35;;;;;;;;;;;7.60;56.70;;;;;;4974973;28;19910;-67
2022/01/24 04:12:01;;;;;;;;;;;7.50;56.90;;;;;;4974850;28;19933;-68
2022/01/24 04:14:35;;;;;;;;;;;7.60;57.00;;;;;;4975220;28;19911;-66
2022/01/24 04:22:16;;;;;;;;;;;7.40;57.40;;;;;;4974988;28;19925;-68
2022/01/24 04:24:42;;;;;;;;;;;7.40;57.20;;;;;;4974827;28;20000;-68
2022/01/24 04:27:08;;;;;;;;;;;7.40;57.30;;;;;;4974842;28;19910;-67
2022/01/24 04:29:33;;;;;;;;;;;7.30;57.30;;;;;;4974671;28;19910;-62
2022/01/24 04:31:59;;;;;;;;;;;7.30;57.60;;;;;;4974593;28;20370;-62
2022/01/24 04:34:25;;;;;;;;;;;7.30;57.40;;;;;;4974746;28;20004;-64
2022/01/24 04:36:50;;;;;;;;;;;7.30;57.50;;;;;;4974693;28;19911;-63
2022/01/24 04:39:17;;;;;;;;;;;7.30;57.30;;;;;;4974208;28;19941;-68
2022/01/24 04:41:46;;;;;;;;;;;7.30;57.30;;;;;;4974450;28;19998;-68
2022/01/24 04:57:04;;;;;;;;;;;7.20;57.60;;;;;;4974644;28;19970;-62
2022/01/24 04:59:30;;;;;;;;;;;7.10;57.70;;;;;;4974743;28;19910;-66
2022/01/24 05:01:56;;;;;;;;;;;7.10;58.00;;;;;;4974318;28;19914;-68
2022/01/24 05:04:21;;;;;;;;;;;7.10;58.10;;;;;;4974598;28;20013;-68
2022/01/24 05:06:47;;;;;;;;;;;7.10;58.10;;;;;;4974583;28;19926;-65
2022/01/24 05:09:13;;;;;;;;;;;7.10;58.10;;;;;;4978483;28;19910;-68
2022/01/24 05:11:49;;;;;;;;;;;7.00;58.10;;;;;;4978241;28;19914;-67
2022/01/24 05:25:19;;;;;;;;;;;6.70;59.00;;;;;;4978454;28;19917;-66
2022/01/24 05:27:44;;;;;;;;;;;6.70;59.30;;;;;;4978379;28;19910;-66
2022/01/24 05:30:10;;;;;;;;;;;6.60;59.60;;;;;;4977990;28;19921;-66
2022/01/24 05:32:36;;;;;;;;;;;6.50;60.00;;;;;;4977805;28;19910;-67
2022/01/24 05:35:02;;;;;;;;;;;6.40;60.40;;;;;;4977900;28;19922;-66
2022/01/24 05:37:27;;;;;;;;;;;6.40;60.70;;;;;;4976489;28;19910;-67
2022/01/24 05:39:53;;;;;;;;;;;6.40;60.80;;;;;;4977867;28;20392;-68
2022/01/24 05:42:21;;;;;;;;;;;6.30;60.70;;;;;;4977400;28;19925;-68
2022/01/24 05:44:49;;;;;;;;;;;6.30;61.20;;;;;;4977702;28;20264;-65
2022/01/24 05:47:16;;;;;;;;;;;6.30;61.30;;;;;;4977930;28;19949;-67
2022/01/24 05:49:41;;;;;;;;;;;6.20;61.50;;;;;;4977602;28;19910;-67
2022/01/24 05:52:10;;;;;;;;;;;6.20;61.50;;;;;;4977507;28;19920;-64
2022/01/24 05:54:37;;;;;;;;;;;6.30;61.40;;;;;;4977627;28;19910;-67
2022/01/24 05:57:03;;;;;;;;;;;6.30;61.40;;;;;;4977719;28;19910;-67
2022/01/24 05:59:28;;;;;;;;;;;6.30;61.50;;;;;;4977295;28;19914;-66
2022/01/24 06:01:54;;;;;;;;;;;6.20;61.70;;;;;;4977379;28;19914;-68
2022/01/24 06:04:19;;;;;;;;;;;6.40;61.40;;;;;;4977307;28;20023;-65
2022/01/24 06:06:45;;;;;;;;;;;6.40;60.90;;;;;;4977214;28;19926;-62
2022/01/24 06:09:10;;;;;;;;;;;6.40;60.90;;;;;;4977326;28;20034;-64
2022/01/24 06:11:36;;;;;;;;;;;6.40;61.00;;;;;;4976905;28;19973;-63
2022/01/24 06:14:03;;;;;;;;;;;6.40;61.20;;;;;;4977257;28;19910;-68
2022/01/24 06:16:29;;;;;;;;;;;6.40;61.50;;;;;;4977167;28;19932;-64
2022/01/24 06:18:54;;;;;;;;;;;6.30;61.40;;;;;;4975923;28;20326;-63
2022/01/24 06:21:20;;;;;;;;;;;6.40;61.10;;;;;;4977039;28;19922;-65
2022/01/24 06:23:45;;;;;;;;;;;6.40;61.60;;;;;;4976946;28;20390;-66
2022/01/24 06:26:11;;;;;;;;;;;6.40;61.20;;;;;;4976982;28;19910;-67
2022/01/24 06:28:37;;;;;;;;;;;6.40;61.30;;;;;;4976986;28;19981;-62
2022/01/24 06:31:03;;;;;;;;;;;6.50;61.40;;;;;;4976985;28;19993;-61
2022/01/24 06:33:29;;;;;;;;;;;6.40;61.30;;;;;;4976899;28;20389;-63
2022/01/24 06:35:54;;;;;;;;;;;6.50;61.30;;;;;;4977021;28;19958;-64
2022/01/24 06:38:20;;;;;;;;;;;6.50;61.00;;;;;;4976795;28;20358;-64
2022/01/24 06:40:45;;;;;;;;;;;6.50;61.20;;;;;;4976856;28;20421;-64
2022/01/24 06:43:11;;;;;;;;;;;6.50;61.30;;;;;;4976573;28;19918;-63
2022/01/24 06:45:36;;;;;;;;;;;6.50;61.00;;;;;;4976704;28;19921;-63
2022/01/24 06:48:02;;;;;;;;;;;6.60;60.80;;;;;;4976618;28;19910;-68
2022/01/24 06:50:28;;;;;;;;;;;6.50;60.90;;;;;;4976373;28;19914;-68
2022/01/24 06:52:53;;;;;;;;;;;6.60;61.10;;;;;;4976551;28;19910;-69
2022/01/24 06:55:19;;;;;;;;;;;6.50;61.20;;;;;;4976277;28;19910;-67
2022/01/24 06:57:45;;;;;;;;;;;6.60;61.10;;;;;;4976385;28;19911;-67
2022/01/24 07:00:11;;;;;;;;;;;6.70;61.10;;;;;;4976476;28;19910;-67
2022/01/24 07:02:36;;;;;;;;;;;6.60;61.00;;;;;;4975765;28;19922;-67
2022/01/24 07:05:02;;;;;;;;;;;6.70;61.00;;;;;;4976138;28;19965;-67
2022/01/24 07:07:28;;;;;;;;;;;6.70;60.70;;;;;;4976230;28;19925;-69
2022/01/24 07:09:54;;;;;;;;;;;6.70;61.10;;;;;;4975965;28;19917;-64
2022/01/24 07:12:20;;;;;;;;;;;6.70;60.80;;;;;;4975749;28;19910;-67
2022/01/24 07:14:46;;;;;;;;;;;6.90;61.20;;;;;;4975290;28;19910;-67
2022/01/24 07:17:18;;;;;;;;;;;7.60;70.60;;;;;;4975878;28;19910;-67
2022/01/24 07:19:43;;;;;;;;;;;8.00;61.60;;;;;;4976042;28;19921;-67
2022/01/24 07:22:09;;;;;;;;;;;8.10;59.90;;;;;;4975981;28;19914;-76
2022/01/24 07:24:35;;;;;;;;;;;8.20;59.90;;;;;;4976181;28;20278;-70
2022/01/24 07:27:02;;;;;;;;;;;8.30;58.70;;;;;;4975855;28;19917;-63
2022/01/24 07:29:27;;;;;;;;;;;8.00;56.50;;;;;;4975667;28;19997;-61
2022/01/24 07:31:53;;;;;;;;;;;8.10;59.50;;;;;;4975950;28;20036;-62
2022/01/24 07:34:18;;;;;;;;;;;8.20;60.10;;;;;;4975506;28;20388;-62
2022/01/24 07:36:44;;;;;;;;;;;8.50;59.50;;;;;;4976173;28;19910;-65
2022/01/24 07:39:10;;;;;;;;;;;8.80;57.10;;;;;;4975505;28;19953;-62
2022/01/24 07:41:42;;;;;;;;;;;9.10;57.30;;;;;;4975323;28;20359;-63
2022/01/24 07:44:08;;;;;;;;;;;9.10;56.50;;;;;;4975359;28;20001;-63
2022/01/24 07:46:34;;;;;;;;;;;9.00;55.00;;;;;;4975450;28;20310;-69
2022/01/24 07:49:00;;;;;;;;;;;8.80;54.80;;;;;;4975491;28;20005;-66
2022/01/24 07:51:26;;;;;;;;;;;8.50;55.60;;;;;;4975250;28;20014;-65
2022/01/24 07:53:51;;;;;;;;;;;8.20;56.30;;;;;;4975835;28;19910;-64
2022/01/24 07:56:17;;;;;;;;;;;8.00;57.00;;;;;;4975776;28;19917;-67
2022/01/24 07:58:44;;;;;;;;;;;7.90;57.50;;;;;;4975604;28;19975;-65
2022/01/24 08:01:10;;;;;;;;;;;7.90;57.80;;;;;;4974234;28;20056;-66
2022/01/24 08:03:36;;;;;;;;;;;7.90;57.60;;;;;;4975014;28;19977;-65
2022/01/24 08:06:01;;;;;;;;;;;7.70;57.50;;;;;;4974626;28;20013;-65
2022/01/24 08:08:27;;;;;;;;;;;7.80;57.90;;;;;;4974542;28;19917;-65
2022/01/24 08:10:53;;;;;;;;;;;7.60;57.70;;;;;;4974618;28;19914;-65
2022/01/24 08:13:18;;;;;;;;;;;7.70;58.30;;;;;;4973928;28;19916;-66
2022/01/24 08:15:44;;;;;;;;;;;7.60;58.40;;;;;;4973632;28;19910;-64
2022/01/24 08:18:10;;;;;;;;;;;7.60;58.30;;;;;;4975296;28;19961;-64
2022/01/24 08:20:35;;;;;;;;;;;7.60;58.40;;;;;;4975223;28;19957;-64
2022/01/24 08:23:01;;;;;;;;;;;7.50;58.30;;;;;;4974862;28;19956;-67
2022/01/24 08:25:27;;;;;;;;;;;7.50;58.40;;;;;;5006260;28;19914;-65
2022/01/24 08:27:53;;;;;;;;;;;7.70;58.20;;;;;;4975185;28;19911;-66
2022/01/24 08:30:20;;;;;;;;;;;7.70;58.00;;;;;;4974926;28;19910;-66
2022/01/24 08:32:46;;;;;;;;;;;7.80;57.90;;;;;;4975013;28;20358;-66
2022/01/24 08:35:13;;;;;;;;;;;7.80;57.80;;;;;;4974956;28;19953;-65
2022/01/24 08:37:39;;;;;;;;;;;7.80;57.70;;;;;;4974968;28;20393;-67
2022/01/24 08:40:06;;;;;;;;;;;7.90;57.90;;;;;;4975058;28;19911;-65
2022/01/24 08:42:38;;;;;;;;;;;7.90;57.70;;;;;;4974431;28;19918;-65
2022/01/24 08:47:31;;;;;;;;;;;7.90;57.30;;;;;;4975068;28;20012;-66
2022/01/24 08:49:58;;;;;;;;;;;8.00;57.60;;;;;;4974857;28;19911;-63
2022/01/24 08:52:24;;;;;;;;;;;8.00;57.00;;;;;;4974391;28;20054;-66
2022/01/24 08:54:50;;;;;;;;;;;8.00;57.10;;;;;;4974423;28;19918;-64
2022/01/24 08:57:15;;;;;;;;;;;8.00;56.90;;;;;;4974242;28;19917;-65
2022/01/24 08:59:41;;;;;;;;;;;8.00;57.20;;;;;;4973841;28;20002;-64
2022/01/24 09:02:07;;;;;;;;;;;8.00;56.90;;;;;;4973659;28;20386;-67
2022/01/24 09:04:33;;;;;;;;;;;8.00;56.60;;;;;;4973951;28;19932;-64
2022/01/24 09:07:03;;;;;;;;;;;8.00;56.80;;;;;;4974068;28;20442;-63
2022/01/24 09:09:29;;;;;;;;;;;8.10;56.80;;;;;;4973120;28;20318;-64
2022/01/24 09:11:55;;;;;;;;;;;8.20;56.40;;;;;;4973085;28;19937;-63
2022/01/24 09:14:20;;;;;;;;;;;8.20;56.30;;;;;;4973188;28;19961;-65
2022/01/24 09:16:46;;;;;;;;;;;8.20;56.40;;;;;;4973214;28;20111;-63
2022/01/24 09:19:12;;;;;;;;;;;8.20;56.40;;;;;;4973539;28;19917;-64
2022/01/24 09:21:38;;;;;;;;;;;8.30;56.30;;;;;;4973342;28;19918;-65
2022/01/24 09:24:04;;;;;;;;;;;8.20;56.10;;;;;;4973373;28;19914;-66
2022/01/24 09:26:30;;;;;;;;;;;8.30;56.40;;;;;;4972913;28;19969;-64
2022/01/24 09:28:55;;;;;;;;;;;8.30;56.20;;;;;;4973113;28;19914;-67
2022/01/24 09:31:22;;;;;;;;;;;8.20;56.20;;;;;;4973150;28;19950;-64
2022/01/24 09:33:48;;;;;;;;;;;8.20;56.50;;;;;;4973576;28;19916;-66
2022/01/24 09:36:14;;;;;;;;;;;8.10;57.00;;;;;;4973614;28;20388;-66
2022/01/24 09:38:39;;;;;;;;;;;8.00;56.90;;;;;;4973458;28;19989;-63
2022/01/24 09:41:06;;;;;;;;;;;7.90;57.50;;;;;;4974214;28;19961;-63
2022/01/24 09:43:32;;;;;;;;;;;7.80;57.20;;;;;;4974021;28;20420;-65
2022/01/24 09:45:58;;;;;;;;;;;7.90;57.50;;;;;;4974120;28;19910;-64
2022/01/24 09:48:24;;;;;;;;;;;7.80;57.20;;;;;;4974435;28;19910;-65
2022/01/24 09:50:53;;;;;;;;;;;7.70;57.60;;;;;;4974425;28;19921;-63
2022/01/24 09:53:22;;;;;;;;;;;7.50;57.80;;;;;;4974378;28;19910;-62
2022/01/24 09:55:49;;;;;;;;;;;7.70;57.70;;;;;;4977488;28;19914;-64
2022/01/24 09:58:15;;;;;;;;;;;7.70;57.40;;;;;;4977985;28;19917;-66
2022/01/24 10:00:41;;;;;;;;;;;7.80;57.20;;;;;;4977564;28;19910;-65
2022/01/24 10:03:09;;;;;;;;;;;7.80;56.90;;;;;;4977445;28;20362;-67
2022/01/24 10:05:39;;;;;;;;;;;8.00;56.30;;;;;;4977352;28;20012;-66
2022/01/24 10:08:24;;;;;;;;;;;8.10;56.40;;;;;;4976307;28;19910;-63
2022/01/24 10:10:51;;;;;;;;;;;8.00;56.20;;;;;;4977258;28;19914;-63
2022/01/24 10:18:59;;;;;;;;;;;8.20;56.00;;;;;;4976385;28;19968;-64
2022/01/24 10:21:25;;;;;;;;;;;8.30;55.90;;;;;;4976553;28;20294;-64
2022/01/24 10:23:50;;;;;;;;;;;8.30;55.40;;;;;;4976484;28;20017;-66
2022/01/24 10:26:16;;;;;;;;;;;8.20;55.60;;;;;;4976889;28;19933;-64
2022/01/24 10:28:43;;;;;;;;;;;8.00;55.00;;;;;;4975502;28;19974;-63
2022/01/24 10:31:11;;;;;;;;;;;8.10;55.20;;;;;;4976223;28;19997;-65
2022/01/24 10:34:18;;;;;;;;;;;8.10;54.80;;;;;;4976659;28;19972;-65
2022/01/24 10:36:46;;;;;;;;;;;8.10;55.00;;;;;;4968270;28;19910;-66
2022/01/24 10:39:15;;;;;;;;;;;8.10;54.70;;;;;;4974877;28;19910;-67
2022/01/24 10:41:58;;;;;;;;;;;8.30;54.60;;;;;;4975240;28;19917;-64
2022/01/24 10:44:31;;;;;;;;;;;8.40;54.50;;;;;;4975043;28;19932;-63
2022/01/24 10:47:10;;;;;;;;;;;8.30;54.60;;;;;;4976348;28;19957;-68
2022/01/24 10:49:35;;;;;;;;;;;8.20;54.80;;;;;;4976032;28;19914;-65
2022/01/24 10:52:11;;;;;;;;;;;8.30;54.30;;;;;;4976539;28;20433;-66
2022/01/24 10:54:37;;;;;;;;;;;8.40;54.10;;;;;;4973616;28;20650;-68
2022/01/24 10:57:03;;;;;;;;;;;8.40;54.00;;;;;;4971951;28;19918;-65
2022/01/24 10:59:28;;;;;;;;;;;8.50;54.00;;;;;;4973220;28;19951;-68
2022/01/24 11:01:56;;;;;;;;;;;8.50;53.80;;;;;;4972720;28;19910;-65
2022/01/24 11:04:23;;;;;;;;;;;8.60;53.90;;;;;;4974913;28;19918;-69
2022/01/24 11:06:50;;;;;;;;;;;8.70;53.40;;;;;;5006334;28;19930;-70
2022/01/24 11:09:26;;;;;;;;;;;8.70;53.70;;;;;;4979100;28;19921;-70
2022/01/24 11:11:53;;;;;;;;;;;8.60;53.50;;;;;;4991347;28;19961;-70
2022/01/24 11:14:20;;;;;;;;;;;8.60;53.30;;;;;;4991991;28;19910;-68
2022/01/24 11:16:47;;;;;;;;;;;8.60;53.90;;;;;;4987506;28;19911;-68
2022/01/24 11:19:19;;;;;;;;;;;8.80;53.50;;;;;;4988987;28;19974;-68
2022/01/24 11:21:45;;;;;;;;;;;8.70;52.70;;;;;;4960494;28;19930;-67
2022/01/24 11:24:16;;;;;;;;;;;8.80;53.40;;;;;;4955957;28;19914;-68
2022/01/24 11:26:42;;;;;;;;;;;8.90;53.50;;;;;;4955838;28;19914;-67
2022/01/24 11:29:08;;;;;;;;;;;9.00;52.70;;;;;;4968611;28;20026;-64
2022/01/24 11:31:43;;;;;;;;;;;8.80;52.40;;;;;;4973992;28;20293;-63
2022/01/24 11:34:13;;;;;;;;;;;8.80;52.40;;;;;;4974542;28;19911;-66
2022/01/24 11:36:40;;;;;;;;;;;8.90;52.90;;;;;;4974392;28;19933;-63
2022/01/24 11:39:06;;;;;;;;;;;8.90;52.70;;;;;;4972811;28;19918;-63
2022/01/24 11:41:33;;;;;;;;;;;8.70;52.90;;;;;;4973681;28;19977;-61
2022/01/24 11:44:07;;;;;;;;;;;8.70;52.90;;;;;;4973498;28;20361;-62
2022/01/24 11:46:35;;;;;;;;;;;8.70;52.90;;;;;;4973579;28;19914;-63
2022/01/24 11:49:02;;;;;;;;;;;8.70;53.00;;;;;;4973681;28;19911;-64
2022/01/24 11:51:32;;;;;;;;;;;8.60;53.10;;;;;;4973182;28;19914;-70
2022/01/24 11:53:58;;;;;;;;;;;8.70;53.10;;;;;;4973315;28;19949;-67
2022/01/24 11:56:28;;;;;;;;;;;8.60;53.30;;;;;;4973355;28;19952;-68
2022/01/24 11:59:12;;;;;;;;;;;8.60;53.40;;;;;;4971004;28;20231;-67
2022/01/24 12:01:39;;;;;;;;;;;8.30;53.10;;;;;;4973008;28;20012;-70
2022/01/24 12:04:06;;;;;;;;;;;8.30;53.50;;;;;;4973322;28;20009;-65
2022/01/24 12:06:51;;;;;;;;;;;8.30;54.00;;;;;;4973304;28;19992;-70
2022/01/24 12:09:23;;;;;;;;;;;8.20;53.90;;;;;;4972635;28;20484;-68
2022/01/24 12:11:48;;;;;;;;;;;8.30;54.30;;;;;;4973526;28;19953;-62
2022/01/24 12:14:23;;;;;;;;;;;8.30;53.50;;;;;;4979087;28;19968;-62
2022/01/24 12:16:52;;;;;;;;;;;8.20;53.70;;;;;;4992180;28;19920;-62
2022/01/24 12:19:27;;;;;;;;;;;8.20;53.50;;;;;;4993227;28;19914;-67
2022/01/24 12:21:53;;;;;;;;;;;8.20;53.50;;;;;;4993002;28;19914;-70
2022/01/24 12:24:21;;;;;;;;;;;8.20;53.40;;;;;;4991681;28;20282;-64
2022/01/24 12:26:48;;;;;;;;;;;8.20;53.70;;;;;;4993485;28;19920;-63
2022/01/24 12:29:21;;;;;;;;;;;8.10;53.80;;;;;;4992672;28;19921;-72
2022/01/24 12:31:51;;;;;;;;;;;8.10;53.80;;;;;;4993189;28;19910;-67
2022/01/24 12:34:16;;;;;;;;;;;8.10;53.40;;;;;;4992952;28;20277;-63
2022/01/24 12:36:50;;;;;;;;;;;8.00;53.90;;;;;;4992800;28;19916;-68
2022/01/24 12:39:32;;;;;;;;;;;8.00;53.60;;;;;;4992800;28;19914;-66
2022/01/24 12:42:00;;;;;;;;;;;8.00;53.90;;;;;;4992949;28;19924;-71
2022/01/24 12:47:03;;;;;;;;;;;8.00;53.30;;;;;;4993094;28;20060;-69
2022/01/24 12:49:29;;;;;;;;;;;8.10;53.10;;;;;;4992775;28;19914;-70
2022/01/24 12:51:55;;;;;;;;;;;8.00;53.30;;;;;;4992795;28;19910;-66
2022/01/24 12:54:27;;;;;;;;;;;8.00;53.10;;;;;;4993262;28;19992;-65
2022/01/24 12:56:57;;;;;;;;;;;8.00;53.10;;;;;;4992414;28;19910;-69
2022/01/24 12:59:22;;;;;;;;;;;8.00;52.80;;;;;;4992314;28;19910;-65
2022/01/24 13:01:52;;;;;;;;;;;8.00;53.10;;;;;;4992705;28;19910;-68
2022/01/24 13:04:17;;;;;;;;;;;7.80;53.50;;;;;;4994033;28;19918;-68
2022/01/24 13:06:46;;;;;;;;;;;7.90;53.40;;;;;;4977411;28;19972;-67
2022/01/24 13:09:25;;;;;;;;;;;7.90;53.30;;;;;;4976342;28;19914;-68
2022/01/24 13:11:53;;;;;;;;;;;8.00;53.40;;;;;;4953823;28;19918;-66
2022/01/24 13:14:32;;;;;;;;;;;8.10;53.20;;;;;;4970887;28;19915;-68
2022/01/24 13:25:02;;;;;;;;;;;7.70;53.10;;;;;;4973912;28;19911;-61
2022/01/24 13:27:43;;;;;;;;;;;7.80;53.30;;;;;;4974407;28;19918;-64
2022/01/24 13:30:32;;;;;;;;;;;7.90;53.20;;;;;;4978286;28;20027;-63
2022/01/24 13:32:59;;;;;;;;;;;8.00;52.90;;;;;;4972362;28;20030;-64
2022/01/24 13:35:30;;;;;;;;;;;8.00;52.50;;;;;;4977662;28;20379;-63
2022/01/24 13:38:00;;;;;;;;;;;8.00;52.70;;;;;;4977810;28;20359;-64
2022/01/24 13:40:29;;;;;;;;;;;8.00;52.60;;;;;;4978563;28;19914;-62
2022/01/24 13:42:55;;;;;;;;;;;7.90;52.40;;;;;;4976793;28;20034;-63
2022/01/24 13:45:20;;;;;;;;;;;7.80;52.60;;;;;;4979511;28;19923;-64
2022/01/24 13:47:55;;;;;;;;;;;8.00;52.80;;;;;;4976844;28;19910;-63
2022/01/24 13:50:20;;;;;;;;;;;8.10;52.90;;;;;;5008779;28;19953;-66
2022/01/24 13:52:49;;;;;;;;;;;8.10;52.30;;;;;;4979209;28;19929;-65
2022/01/24 13:55:16;;;;;;;;;;;8.10;52.10;;;;;;4976891;28;20017;-67
2022/01/24 13:57:46;;;;;;;;;;;7.90;52.40;;;;;;4978971;28;19909;-63
2022/01/24 14:00:15;;;;;;;;;;;7.90;52.30;;;;;;4979153;28;20397;-63
2022/01/24 14:02:40;;;;;;;;;;;7.90;52.30;;;;;;4976423;28;19926;-63
2022/01/24 14:05:06;;;;;;;;;;;7.70;52.90;;;;;;4976660;28;19918;-63
2022/01/24 14:07:41;;;;;;;;;;;7.80;52.70;;;;;;4976732;28;19914;-63
2022/01/24 14:10:09;;;;;;;;;;;7.70;53.00;;;;;;4974029;28;20315;-64
2022/01/24 14:12:44;;;;;;;;;;;7.70;52.40;;;;;;4979200;28;19910;-64
2022/01/24 14:15:17;;;;;;;;;;;7.70;52.40;;;;;;4979992;28;19921;-63
2022/01/24 14:18:06;;;;;;;;;;;7.70;52.60;;;;;;4979122;28;19918;-62
2022/01/24 14:20:32;;;;;;;;;;;7.50;53.50;;;;;;4977164;28;19914;-62
2022/01/24 14:22:57;;;;;;;;;;;7.50;53.60;;;;;;4978737;28;19925;-63
2022/01/24 14:25:25;;;;;;;;;;;7.60;53.00;;;;;;4976271;28;20384;-63
2022/01/24 14:27:52;;;;;;;;;;;7.50;53.30;;;;;;4976700;28;19931;-63
2022/01/24 14:30:20;;;;;;;;;;;7.30;53.30;;;;;;4978599;28;19918;-66
2022/01/24 14:33:04;;;;;;;;;;;7.30;53.80;;;;;;4977173;28;19911;-68
2022/01/24 14:35:33;;;;;;;;;;;7.40;53.60;;;;;;4973624;28;20284;-67
2022/01/24 14:37:59;;;;;;;;;;;7.40;53.40;;;;;;4976900;28;19918;-66
2022/01/24 14:40:31;;;;;;;;;;;7.50;53.40;;;;;;4975226;28;20363;-65
2022/01/24 14:44:53;;;;;;;;;;;7.40;53.30;;;;;;4975900;28;20390;-66
2022/01/24 14:45:42;;;;;;;;;;;7.50;53.10;;;;;;4978414;28;19911;-65
2022/01/24 14:48:08;;;;;;;;;;;7.40;53.40;;;;;;4976228;28;19990;-65
2022/01/24 14:50:36;;;;;;;;;;;7.40;53.00;;;;;;4978955;28;19910;-65
2022/01/24 14:53:04;;;;;;;;;;;7.10;53.60;;;;;;4975886;28;19928;-64
2022/01/24 14:55:30;;;;;;;;;;;7.20;54.10;;;;;;4977644;28;19914;-66
2022/01/24 14:57:56;;;;;;;;;;;7.30;53.50;;;;;;4978209;28;20298;-68
2022/01/24 15:00:22;;;;;;;;;;;7.10;53.70;;;;;;4975970;28;20057;-66
2022/01/24 15:02:47;;;;;;;;;;;7.00;53.80;;;;;;4979734;28;20008;-65
2022/01/24 15:05:15;;;;;;;;;;;6.80;54.30;;;;;;4979996;28;20445;-66
2022/01/24 15:07:40;;;;;;;;;;;6.80;54.30;;;;;;4974737;28;20342;-68
2022/01/24 15:10:08;;;;;;;;;;;6.90;54.50;;;;;;4979054;28;19910;-68
2022/01/24 15:12:36;;;;;;;;;;;7.00;54.30;;;;;;4979697;28;19937;-65
2022/01/24 15:15:04;;;;;;;;;;;6.90;54.00;;;;;;4992554;28;20286;-66
2022/01/24 15:23:54;;;;;;;;;;;6.90;53.90;;;;;;4999497;28;19910;-68
2022/01/24 15:25:45;;;;;;;;;;;7.20;53.90;;;;;;4961851;28;19922;-62
2022/01/24 15:28:12;;;;;;;;;;;6.90;53.70;;;;;;4975095;28;19914;-62
2022/01/24 15:30:40;;;;;;;;;;;6.90;53.80;;;;;;4975144;28;20008;-66
2022/01/24 15:33:06;;;;;;;;;;;6.80;54.00;;;;;;4978095;28;19922;-67
2022/01/24 15:35:31;;;;;;;;;;;6.70;54.20;;;;;;4977874;28;19921;-65
2022/01/24 15:38:04;;;;;;;;;;;6.60;54.60;;;;;;4974519;28;19914;-65
2022/01/24 15:40:31;;;;;;;;;;;6.70;54.10;;;;;;4973250;28;19910;-66
2022/01/24 15:45:55;;;;;;;;;;;6.50;54.50;;;;;;4976338;28;20009;-65
2022/01/24 15:48:11;;;;;;;;;;;6.50;54.50;;;;;;4977616;28;20360;-63
2022/01/24 15:50:38;;;;;;;;;;;6.70;54.00;;;;;;4976672;28;20397;-62
2022/01/24 15:53:04;;;;;;;;;;;6.50;54.00;;;;;;4975481;28;19925;-63
2022/01/24 15:55:32;;;;;;;;;;;6.50;54.40;;;;;;4974298;28;19918;-62
2022/01/24 15:57:58;;;;;;;;;;;6.40;54.60;;;;;;4975425;28;19990;-64
2022/01/24 16:00:26;;;;;;;;;;;6.50;54.70;;;;;;4976551;28;20012;-64
2022/01/24 16:02:58;;;;;;;;;;;6.50;54.40;;;;;;4973664;28;19918;-64
2022/01/24 16:05:26;;;;;;;;;;;6.30;54.70;;;;;;4975854;28;19922;-64
2022/01/24 16:07:52;;;;;;;;;;;6.30;54.60;;;;;;4975667;28;20005;-63
2022/01/24 16:10:20;;;;;;;;;;;6.30;54.80;;;;;;4973546;28;19922;-65
2022/01/24 16:12:47;;;;;;;;;;;6.20;54.60;;;;;;4974857;28;19953;-62
2022/01/24 16:15:14;;;;;;;;;;;6.20;54.90;;;;;;4974955;28;19918;-64
2022/01/24 16:17:40;;;;;;;;;;;6.20;55.10;;;;;;4974511;28;19910;-63
2022/01/24 16:20:21;;;;;;;;;;;6.20;54.70;;;;;;4974756;28;20013;-62
2022/01/24 16:23:44;;;;;;;;;;;6.30;54.50;;;;;;4974404;28;20341;-62
2022/01/24 16:25:39;;;;;;;;;;;6.30;54.70;;;;;;4974381;28;19914;-62
2022/01/24 16:28:17;;;;;;;;;;;6.40;54.40;;;;;;4974319;28;19937;-62
2022/01/24 16:30:44;;;;;;;;;;;6.30;54.20;;;;;;4974640;28;19910;-66
2022/01/24 16:33:09;;;;;;;;;;;6.30;54.20;;;;;;4976680;28;19917;-64